Dati Storici

Data ora Umidita' aria (%) Temperatura aria (°C) Rad globale (W/m²) Gonioanemometro (°) Tacoanemometro (m/s) Pioggia (mm)
28-10-2012 18:10 87.8 % 5.6 3.116 24.071 2.338 0
28-10-2012 18:00 87.4 % 5.724 4.45 9.268 3.092 0
28-10-2012 17:50 88.1 % 5.736 5.744 10.555 5.409 0
28-10-2012 17:40 88.2 % 5.744 8.907 61.154 1.824 0
28-10-2012 17:30 88.4 % 5.657 22.146 25.267 2.351 1
28-10-2012 17:20 88.2 % 5.784 11.96 42.509 7.082 0
28-10-2012 17:10 88.6 % 5.954 11.462 18.074 6.158 0
28-10-2012 17:00 88.6 % 6.002 21.12 45.286 2.474 0
28-10-2012 16:50 88.2 % 5.825 21.065 17.211 3.539 1
28-10-2012 16:40 88.1 % 5.645 14.499 37.654 4.733 1
28-10-2012 16:30 88.2 % 5.495 19.308 76.137 4.018 1
28-10-2012 16:20 86.2 % 5.845 16.248 29.09 5.72 1
28-10-2012 16:10 85.6 % 5.822 16.311 8.381 3.616 1
28-10-2012 16:00 84.2 % 5.951 19.843 191.857 4.404 1
28-10-2012 15:50 86.2 % 5.887 25.066 51.463 3.321 1
28-10-2012 15:40 86.7 % 5.821 25.347 7.436 4.326 0
28-10-2012 15:30 85.5 % 5.952 35.059 31.88 3.486 1
28-10-2012 15:20 84.6 % 6.179 27.596 346.747 6.565 0
28-10-2012 15:10 85.9 % 6.017 39.905 17.913 4.585 1
28-10-2012 15:00 85.4 % 6.101 49.266 31.187 3.862 0

I dati sono presentati in modo automatico a scopo informativo. In seguito a verifica i dati possono subire modifiche o essere invalidati e non riportati negli archivi definitivi.